Flight Number: AVA2291 Duration: 3:45
Departure: Jacksonville Int`l Airport (KJAX) at 16:15 Distance: 1589.03 Nm
Arrival: Jackson Hole Airport (KJAC) at 20:00 Equipment: MD-81

Weather Information
JACKSONVILLE INTERNATIONAL, FL, United States (KJAX) 30-30N 81-42W 7M Mar 01, 2021 - 10:56 PM EST / 2021.03.02 0356 UTC
Wind: from the NNE (030 degrees) at 12 MPH (10 KT):0
Visibility: 10 mile(s):0
Sky conditions: mostly cloudy Precipitation last hour: A trace Temperature: 61.0 F (16.1 C) Dew Point: 57.9 F (14.4 C) Relative Humidity: 89% Pressure (altimeter): 30.11 in. Hg (1019 hPa)
ob: KJAX 020356Z 03010KT 10SM BKN055 BKN100 16/14 A3011 RMK AO2 RAE16 SLP196 P0000 T01610144 cycle: 4
Sunrise: 11:53 Sunset: 23:23 (UTC)

Jackson, Jackson Hole Airport, WY, United States (KJAC) 43-36N 110-44W Mar 01, 2021 - 10:56 PM EST / 2021.03.02 0356 UTC
Wind: from the NNE (020 degrees) at 13 MPH (11 KT):0
Visibility: 10 mile(s):0
Sky conditions: clear Temperature: 8.1 F (-13.3 C)
Windchill: -7 F (-22 C):2 Dew Point: 5.0 F (-15.0 C) Relative Humidity: 87% Pressure (altimeter): 30.18 in. Hg (1022 hPa)
ob: KJAC 020356Z AUTO 02011KT 10SM CLR M13/M15 A3018 RMK AO2 SLP329 T11331150 FZRANO cycle: 4
Sunrise: 13:59 Sunset: 01:10 (UTC)

TAF:2021/03/01 18:28 TAF KJAC 011725Z 0118/0218 20003KT P6SM SKC FM020800 01006KT P6SM SCT025

Previous Pireps for this route
Date Aircraft Flight time Fuel used Landing rate On time
2015-02-01MD-8104.2727517-110Yes
(pireps marked green are flown by you)

Route map